createdAt,value
2019-04-28T00:02:12.490Z,12.14
2019-04-28T00:07:16.692Z,11.92
2019-04-28T00:12:21.014Z,11.89
2019-04-28T00:17:26.808Z,11.93
2019-04-28T00:22:44.299Z,11.86
2019-04-28T00:27:48.476Z,11.95
2019-04-28T00:32:52.666Z,11.96
2019-04-28T00:37:56.837Z,11.74
2019-04-28T00:43:01.044Z,11.77
2019-04-28T00:48:05.315Z,11.73
2019-04-28T00:53:09.503Z,11.37
2019-04-28T00:58:13.688Z,11.19
2019-04-28T01:03:17.858Z,11.22
2019-04-28T01:08:22.071Z,11.29
2019-04-28T01:13:26.261Z,11.34
2019-04-28T01:18:40.509Z,11.14
2019-04-28T01:23:44.787Z,10.91
2019-04-28T01:28:49.700Z,11.01
2019-04-28T01:34:20.422Z,11.12
2019-04-28T01:39:25.764Z,11.12
2019-04-28T01:44:29.965Z,11.00
2019-04-28T01:49:34.285Z,10.99
2019-04-28T01:54:40.072Z,11.06
2019-04-28T01:59:44.625Z,11.25
2019-04-28T02:04:49.881Z,11.01
2019-04-28T02:09:54.416Z,10.82
2019-04-28T02:15:00.603Z,10.64
2019-04-28T02:20:05.181Z,10.60
2019-04-28T02:25:10.001Z,10.36
2019-04-28T02:30:14.459Z,10.28
2019-04-28T02:35:21.175Z,10.08
2019-04-28T02:40:24.663Z,10.20
2019-04-28T02:45:31.371Z,10.09
2019-04-28T02:50:50.952Z,10.13
2019-04-28T02:55:54.842Z,9.87
2019-04-28T03:01:11.285Z,9.99
2019-04-28T03:06:05.004Z,10.12
2019-04-28T03:11:10.683Z,10.10
2019-04-28T03:16:15.059Z,9.96
2019-04-28T03:21:21.351Z,9.87
2019-04-28T03:26:37.849Z,9.68
2019-04-28T03:32:25.292Z,9.72
2019-04-28T03:37:12.956Z,9.89
2019-04-28T03:42:17.167Z,9.48
2019-04-28T03:47:21.685Z,9.31
2019-04-28T03:52:25.982Z,9.47
2019-04-28T03:57:31.344Z,9.56
2019-04-28T04:02:35.863Z,9.62
2019-04-28T04:07:42.805Z,9.59
2019-04-28T04:12:53.684Z,9.44
2019-04-28T04:18:03.232Z,9.54
2019-04-28T04:23:07.422Z,9.49
2019-04-28T04:28:11.622Z,9.30
2019-04-28T04:33:15.803Z,9.24
2019-04-28T04:38:21.722Z,9.29
2019-04-28T04:43:26.028Z,9.26
2019-04-28T04:48:31.142Z,9.12
2019-04-28T04:53:35.491Z,9.19
2019-04-28T04:58:40.628Z,9.17
2019-04-28T05:03:46.827Z,9.06
2019-04-28T05:08:51.032Z,9.22
2019-04-28T05:13:55.222Z,9.24
2019-04-28T05:19:00.133Z,8.92
2019-04-28T05:24:30.398Z,8.96
2019-04-28T05:29:34.744Z,9.21
2019-04-28T05:34:41.405Z,9.25
2019-04-28T05:39:44.850Z,9.20
2019-04-28T05:44:49.639Z,9.09
2019-04-28T05:50:11.865Z,9.08
2019-04-28T05:55:20.433Z,9.12
2019-04-28T06:01:00.286Z,9.14
2019-04-28T06:06:04.604Z,9.14
2019-04-28T06:11:26.568Z,9.14
2019-04-28T06:16:30.772Z,9.24
2019-04-28T06:21:35.076Z,8.99
2019-04-28T06:26:39.302Z,9.12
2019-04-28T06:31:43.530Z,9.36
2019-04-28T06:36:47.705Z,9.35
2019-04-28T06:41:51.899Z,9.60
2019-04-28T06:46:56.075Z,9.39
2019-04-28T06:52:00.385Z,9.42
2019-04-28T06:57:04.596Z,9.55
2019-04-28T07:02:08.779Z,9.46
2019-04-28T07:07:12.975Z,9.47
2019-04-28T07:12:17.164Z,9.48
2019-04-28T07:17:21.351Z,9.51
2019-04-28T07:22:27.543Z,9.49
2019-04-28T07:27:31.756Z,9.78
2019-04-28T07:32:35.938Z,9.75
2019-04-28T07:37:40.120Z,9.75
2019-04-28T07:42:44.299Z,9.70
2019-04-28T07:47:48.487Z,9.62
2019-04-28T07:53:05.024Z,9.85
2019-04-28T07:58:09.245Z,10.01
2019-04-28T08:03:13.441Z,10.02
2019-04-28T08:08:17.646Z,9.96
2019-04-28T08:13:21.831Z,10.18
2019-04-28T08:18:26.035Z,9.60
2019-04-28T08:23:30.225Z,9.52
2019-04-28T08:28:34.425Z,9.85
2019-04-28T08:34:02.742Z,10.07
2019-04-28T08:39:06.158Z,10.24
2019-04-28T08:44:10.369Z,10.06
2019-04-28T08:49:14.591Z,10.45
2019-04-28T08:54:18.782Z,10.33
2019-04-28T08:59:22.973Z,10.22
2019-04-28T09:04:27.155Z,9.85
2019-04-28T09:09:31.357Z,9.89
2019-04-28T09:14:35.675Z,10.51
2019-04-28T09:19:42.315Z,10.80
2019-04-28T09:24:45.798Z,11.27
2019-04-28T09:29:49.978Z,11.30
2019-04-28T09:34:54.154Z,11.02
2019-04-28T09:40:09.552Z,11.71
2019-04-28T09:45:18.079Z,11.81
2019-04-28T09:50:22.301Z,11.82
2019-04-28T09:55:26.517Z,11.68
2019-04-28T10:00:30.713Z,11.29
2019-04-28T10:05:34.907Z,11.34
2019-04-28T10:10:39.112Z,11.17
2019-04-28T10:15:43.490Z,11.26
2019-04-28T10:20:47.707Z,11.19
2019-04-28T10:25:51.899Z,11.14
2019-04-28T10:30:56.103Z,11.39
2019-04-28T10:36:00.299Z,11.15
2019-04-28T10:41:09.275Z,11.39
2019-04-28T10:46:13.456Z,11.40
2019-04-28T10:51:17.643Z,11.62
2019-04-28T10:56:21.827Z,12.08
2019-04-28T11:01:26.043Z,12.32
2019-04-28T11:06:30.232Z,12.43
2019-04-28T11:11:34.517Z,13.03
2019-04-28T11:16:39.088Z,13.30
2019-04-28T11:21:43.402Z,14.73
2019-04-28T11:26:47.612Z,14.03
2019-04-28T11:31:51.790Z,13.30
2019-04-28T11:36:56.049Z,12.51
2019-04-28T11:42:00.297Z,11.98
2019-04-28T11:47:06.737Z,12.28
2019-04-28T11:52:11.047Z,12.66
2019-04-28T11:57:15.286Z,12.12
2019-04-28T12:02:19.681Z,12.31
2019-04-28T12:07:24.280Z,12.62
2019-04-28T12:12:38.069Z,12.12
2019-04-28T12:18:04.179Z,11.89
2019-04-28T12:23:09.859Z,12.01
2019-04-28T12:28:14.225Z,12.11
2019-04-28T12:33:18.424Z,12.37
2019-04-28T12:38:22.621Z,12.55
2019-04-28T12:43:27.789Z,13.07
2019-04-28T12:48:32.750Z,12.70
2019-04-28T12:53:37.026Z,13.10
2019-04-28T12:58:41.228Z,12.72
2019-04-28T13:04:11.320Z,12.65
2019-04-28T13:09:15.653Z,12.54
2019-04-28T13:14:19.842Z,12.95
2019-04-28T13:19:24.087Z,12.39
2019-04-28T13:24:28.300Z,12.27
2019-04-28T13:29:33.092Z,12.46
2019-04-28T13:34:39.468Z,12.50
2019-04-28T13:39:59.887Z,12.61
2019-04-28T13:45:11.379Z,12.98
2019-04-28T13:50:23.891Z,13.06
2019-04-28T13:55:53.080Z,12.49
2019-04-28T14:01:22.098Z,13.14
2019-04-28T14:06:28.762Z,15.36
2019-04-28T14:11:33.195Z,15.64
2019-04-28T14:16:37.388Z,15.25
2019-04-28T14:21:41.637Z,13.75
2019-04-28T14:26:45.970Z,13.32
2019-04-28T14:31:50.197Z,13.04
2019-04-28T14:36:54.422Z,12.98
2019-04-28T14:41:58.644Z,12.99
2019-04-28T14:47:02.858Z,14.16
2019-04-28T14:52:07.001Z,15.07
2019-04-28T14:57:11.193Z,14.44
2019-04-28T15:02:37.245Z,13.47
2019-04-28T15:08:00.349Z,13.50
2019-04-28T15:13:05.216Z,13.81
2019-04-28T15:18:09.510Z,14.21
2019-04-28T15:23:13.681Z,13.83
2019-04-28T15:28:17.905Z,13.81
2019-04-28T15:33:22.091Z,14.16
2019-04-28T15:38:26.295Z,14.55
2019-04-28T15:43:30.513Z,15.11
2019-04-28T15:48:34.731Z,15.15
2019-04-28T15:53:38.941Z,14.72
2019-04-28T15:58:43.130Z,14.17
2019-04-28T16:03:47.340Z,13.81
2019-04-28T16:08:51.542Z,14.08
2019-04-28T16:13:55.737Z,14.72
2019-04-28T16:19:00.023Z,14.09
2019-04-28T16:24:04.511Z,13.83
2019-04-28T16:29:08.753Z,13.68
2019-04-28T16:34:12.986Z,14.14
2019-04-28T16:39:17.203Z,14.14
2019-04-28T16:44:28.490Z,14.51
2019-04-28T16:49:32.785Z,13.53
2019-04-28T16:54:36.983Z,13.78
2019-04-28T16:59:58.376Z,13.72
2019-04-28T17:05:02.640Z,13.79
2019-04-28T17:10:07.241Z,13.35
2019-04-28T17:15:12.277Z,13.51
2019-04-28T17:20:16.728Z,13.54
2019-04-28T17:25:21.052Z,13.71
2019-04-28T17:30:25.473Z,13.33
2019-04-28T17:35:29.807Z,13.37
2019-04-28T17:40:34.488Z,12.91
2019-04-28T17:45:38.775Z,12.89
2019-04-28T17:50:45.325Z,12.93
2019-04-28T17:55:49.168Z,12.52
2019-04-28T18:01:24.557Z,12.37
2019-04-28T18:06:29.954Z,12.51
2019-04-28T18:11:34.206Z,12.45
2019-04-28T18:16:56.553Z,12.34
2019-04-28T18:22:00.930Z,12.42
2019-04-28T18:27:05.141Z,12.41
2019-04-28T18:32:27.071Z,12.13
2019-04-28T18:37:50.505Z,11.97
2019-04-28T18:43:01.850Z,11.99
2019-04-28T18:48:06.471Z,12.12
2019-04-28T18:53:12.384Z,11.99
2019-04-28T18:58:16.748Z,11.92
2019-04-28T19:03:21.342Z,11.96
2019-04-28T19:08:49.444Z,11.78
2019-04-28T19:13:54.260Z,11.77
2019-04-28T19:19:01.202Z,11.66
2019-04-28T19:24:13.752Z,11.46
2019-04-28T19:29:18.895Z,11.51
2019-04-28T19:34:25.986Z,11.44
2019-04-28T19:39:31.955Z,11.44
2019-04-28T19:44:37.005Z,11.41
2019-04-28T19:49:41.507Z,11.29
2019-04-28T19:55:23.527Z,11.40
2019-04-28T20:00:37.088Z,11.29
2019-04-28T20:05:42.106Z,11.30
2019-04-28T20:10:46.733Z,11.38
2019-04-28T20:15:51.278Z,11.25
2019-04-28T20:20:55.675Z,11.15
2019-04-28T20:25:59.947Z,11.34
2019-04-28T20:31:04.193Z,11.06
2019-04-28T20:36:14.746Z,11.15
2019-04-28T20:41:22.804Z,11.00
2019-04-28T20:46:27.059Z,11.05
2019-04-28T20:51:31.328Z,11.11
2019-04-28T20:56:35.485Z,11.05
2019-04-28T21:01:39.695Z,10.89
2019-04-28T21:06:44.028Z,10.84
2019-04-28T21:11:48.220Z,10.84
2019-04-28T21:16:52.419Z,10.75
2019-04-28T21:21:56.610Z,10.77
2019-04-28T21:27:00.824Z,10.91
2019-04-28T21:32:05.022Z,10.90
2019-04-28T21:37:09.365Z,10.77
2019-04-28T21:42:17.035Z,10.70
2019-04-28T21:47:24.807Z,10.67
2019-04-28T21:52:29.020Z,10.72
2019-04-28T21:57:33.201Z,10.67
2019-04-28T22:02:37.409Z,10.66
2019-04-28T22:07:41.749Z,10.55
2019-04-28T22:12:45.927Z,10.49
2019-04-28T22:17:50.123Z,10.49
2019-04-28T22:22:54.329Z,10.50
2019-04-28T22:27:58.526Z,10.31
2019-04-28T22:33:02.722Z,10.35
2019-04-28T22:38:06.929Z,10.31
2019-04-28T22:43:11.243Z,10.26
2019-04-28T22:48:17.221Z,10.41
2019-04-28T22:53:25.138Z,10.38
2019-04-28T22:58:39.297Z,10.46
2019-04-28T23:04:14.634Z,10.34
2019-04-28T23:09:20.744Z,10.35
2019-04-28T23:14:27.757Z,10.07
2019-04-28T23:19:54.230Z,10.07
2019-04-28T23:25:15.297Z,10.15
2019-04-28T23:36:49.714Z,10.24
2019-04-28T23:42:14.542Z,9.87
2019-04-28T23:47:18.733Z,9.96
2019-04-28T23:52:50.707Z,9.83
2019-04-28T23:58:32.895Z,9.77
